Dades meteomassalio
Diari Summary for Juliol 13, 2017 Units:  English    Metric   Both
« Previous Day
Next Day »
Diari Semanal Mensual Anual Personalitzat
  Maxima: Minima: Mijana:
Temperatura: TemperatureC °F 18.6 °F 28.8 °F
Rosada: DewpointC °F 13.9 °F 15.2 °F
Humitat: Humidity % 26 % 46 %
Velocitat del vent: WindSpeedKMH mph 0.0 mph 4.7 mph
Racha vent: WindSpeedGustKMH mph - -
Vent:- - SSW
Pressio: PressurehPa in 1012.8 in -
Pluja: 0.0 in    
Historical Graphs
 
 
Tabular Data for Juliol 13, 2017
Time Temperature Dew Point Pressure Wind Wind Speed Wind Gust Humidity Rainfall Rate (Hourly) solar Conditions
TemperatureC °F DewpointC °F PressurehPa in Calm     Humidity % HourlyPrecipMM in SolarRadiationWatts/m^2 W/m2 Conditions
00:01 29.8 °F 14.8 °F 1016.5 in Calm     40 % 0.0 in 0.0 W/m2 CLR
00:06 29.7 °F 14.7 °F 1016.5 in NW 14.8 mph 14.8 mph 40 % 0.0 in 0.0 W/m2 CLR
00:11 29.7 °F 14.7 °F 1016.5 in Calm     40 % 0.0 in 0.0 W/m2 CLR
00:12 29.7 °F 14.7 °F 1016.5 in North 6.4 mph 6.4 mph 40 % 0.0 in 0.0 W/m2 CLR
00:17 29.7 °F 14.6 °F 1016.5 in Calm     40 % 0.0 in 0.0 W/m2 CLR
00:22 29.6 °F 14.2 °F 1016.8 in Calm     39 % 0.0 in 0.0 W/m2 CLR
00:27 29.6 °F 14.6 °F 1016.8 in Calm     40 % 0.0 in 0.0 W/m2 CLR
00:32 29.4 °F 14.4 °F 1016.8 in Calm     40 % 0.0 in 0.0 W/m2 CLR
00:37 29.3 °F 14.3 °F 1016.8 in Calm     40 % 0.0 in 0.0 W/m2 CLR
00:42 29.2 °F 14.6 °F 1017.2 in Calm     41 % 0.0 in 0.0 W/m2 CLR
00:47 28.9 °F 14.7 °F 1016.8 in SW 5.6 mph 5.6 mph 42 % 0.0 in 0.0 W/m2 CLR
00:52 28.7 °F 14.8 °F 1017.2 in Calm     43 % 0.0 in 0.0 W/m2 CLR
00:57 28.4 °F 14.9 °F 1017.2 in Calm     44 % 0.0 in 0.0 W/m2 CLR
01:02 28.1 °F 15.1 °F 1017.2 in WSW 5.6 mph   45 % 0.0 in 0.0 W/m2 CLR
01:07 27.9 °F 14.9 °F 1017.2 in Calm     45 % 0.0 in 0.0 W/m2 CLR
01:12 27.9 °F 15.2 °F 1017.2 in WSW 11.1 mph 11.1 mph 46 % 0.0 in 0.0 W/m2 CLR
01:17 27.7 °F 15.1 °F 1017.2 in WSW 7.4 mph 7.4 mph 46 % 0.0 in 0.0 W/m2 CLR
01:22 27.7 °F 15.0 °F 1017.2 in West 5.6 mph   46 % 0.0 in 0.0 W/m2 CLR
01:27 27.6 °F 14.9 °F 1017.2 in WSW 5.6 mph 5.6 mph 46 % 0.0 in 0.0 W/m2 CLR
01:33 27.5 °F 15.2 °F 1017.2 in Calm     47 % 0.0 in 0.0 W/m2 CLR
01:38 27.3 °F 15.1 °F 1017.2 in Calm     47 % 0.0 in 0.0 W/m2 CLR
01:43 27.2 °F 15.2 °F 1017.2 in Calm     48 % 0.0 in 0.0 W/m2 CLR
01:48 26.9 °F 15.0 °F 1017.2 in Calm     48 % 0.0 in 0.0 W/m2 CLR
01:53 26.8 °F 15.5 °F 1017.2 in Calm     50 % 0.0 in 0.0 W/m2 CLR
01:58 26.6 °F 15.6 °F 1017.2 in Calm     51 % 0.0 in 0.0 W/m2 CLR
02:03 26.3 °F 15.4 °F 1017.2 in Calm     51 % 0.0 in 0.0 W/m2 CLR
02:08 26.2 °F 15.2 °F 1017.2 in Calm     51 % 0.0 in 0.0 W/m2 CLR
02:09 26.1 °F 15.2 °F 1017.2 in Calm     51 % 0.0 in 0.0 W/m2 CLR
02:15 26.0 °F 15.1 °F 1017.2 in Calm     51 % 0.0 in 0.0 W/m2 CLR
02:20 26.1 °F 13.9 °F 1017.2 in West 7.4 mph 7.4 mph 47 % 0.0 in 0.0 W/m2 CLR
02:25 26.5 °F 14.3 °F 1017.2 in Calm     47 % 0.0 in 0.0 W/m2 CLR
02:30 26.6 °F 14.9 °F 1017.2 in Calm     49 % 0.0 in 0.0 W/m2 CLR
02:35 26.4 °F 15.1 °F 1017.2 in Calm     50 % 0.0 in 0.0 W/m2 CLR
02:40 26.1 °F 14.8 °F 1017.2 in Calm     50 % 0.0 in 0.0 W/m2 CLR
02:45 25.8 °F 14.9 °F 1017.2 in Calm     51 % 0.0 in 0.0 W/m2 CLR
02:50 25.6 °F 14.4 °F 1017.2 in Calm     50 % 0.0 in 0.0 W/m2 CLR
02:51 25.6 °F 14.9 °F 1017.2 in Calm     52 % 0.0 in 0.0 W/m2 CLR
02:56 25.3 °F 15.1 °F 1017.2 in Calm     53 % 0.0 in 0.0 W/m2 CLR
03:01 25.2 °F 14.3 °F 1017.2 in Calm     51 % 0.0 in 0.0 W/m2 CLR
03:06 25.0 °F 15.6 °F 1017.2 in Calm     56 % 0.0 in 0.0 W/m2 CLR
03:11 24.6 °F 15.5 °F 1017.2 in Calm     57 % 0.0 in 0.0 W/m2 CLR
03:16 24.2 °F 15.4 °F 1017.2 in Calm     58 % 0.0 in 0.0 W/m2 CLR
03:21 23.8 °F 15.3 °F 1017.2 in Calm     59 % 0.0 in 0.0 W/m2 CLR
03:26 23.6 °F 15.4 °F 1017.5 in Calm     60 % 0.0 in 0.0 W/m2 CLR
03:31 23.4 °F 14.9 °F 1017.5 in Calm     59 % 0.0 in 0.0 W/m2 CLR
03:36 23.3 °F 14.8 °F 1017.5 in Calm     59 % 0.0 in 0.0 W/m2 CLR
03:41 23.2 °F 14.9 °F 1017.5 in Calm     60 % 0.0 in 0.0 W/m2 CLR
03:46 23.1 °F 15.2 °F 1017.5 in Calm     61 % 0.0 in 0.0 W/m2 CLR
03:51 22.9 °F 15.0 °F 1017.5 in Calm     61 % 0.0 in 0.0 W/m2 CLR
03:56 22.8 °F 15.1 °F 1017.5 in Calm     62 % 0.0 in 0.0 W/m2 CLR
04:01 22.6 °F 14.9 °F 1017.2 in Calm     62 % 0.0 in 0.0 W/m2 CLR
04:06 22.3 °F 14.9 °F 1017.2 in Calm     63 % 0.0 in 0.0 W/m2 CLR
04:11 22.1 °F 15.2 °F 1017.5 in Calm     65 % 0.0 in 0.0 W/m2 CLR
04:16 21.8 °F 14.9 °F 1017.5 in Calm     65 % 0.0 in 0.0 W/m2 CLR
04:21 21.7 °F 14.8 °F 1017.2 in Calm     65 % 0.0 in 0.0 W/m2 CLR
04:26 21.5 °F 14.7 °F 1017.5 in Calm     65 % 0.0 in 0.0 W/m2 CLR
04:31 21.4 °F 14.8 °F 1017.2 in Calm     66 % 0.0 in 0.0 W/m2 CLR
04:36 21.3 °F 14.9 °F 1017.2 in Calm     67 % 0.0 in 0.0 W/m2 CLR
04:41 21.2 °F 15.1 °F 1017.5 in Calm     68 % 0.0 in 0.0 W/m2 CLR
04:46 21.0 °F 15.1 °F 1017.5 in Calm     69 % 0.0 in 0.0 W/m2 CLR
04:51 20.8 °F 14.7 °F 1017.5 in Calm     68 % 0.0 in 0.0 W/m2 CLR
04:56 20.7 °F 14.6 °F 1017.5 in Calm     68 % 0.0 in 0.0 W/m2 CLR
05:01 20.6 °F 14.4 °F 1017.5 in Calm     68 % 0.0 in 0.0 W/m2 CLR
05:06 20.4 °F 14.6 °F 1017.5 in Calm     69 % 0.0 in 0.0 W/m2 CLR
05:11 20.4 °F 14.5 °F 1017.5 in Calm     69 % 0.0 in 0.0 W/m2 CLR
05:16 20.3 °F 14.4 °F 1017.5 in Calm     69 % 0.0 in 0.0 W/m2 CLR
05:21 20.3 °F 14.2 °F 1017.5 in Calm     68 % 0.0 in 0.0 W/m2 CLR
05:26 20.2 °F 14.3 °F 1017.5 in Calm     69 % 0.0 in 0.0 W/m2 CLR
05:31 20.1 °F 14.2 °F 1017.5 in Calm     69 % 0.0 in 0.0 W/m2 CLR
05:36 19.9 °F 14.3 °F 1017.5 in Calm     70 % 0.0 in 0.0 W/m2 CLR
05:41 19.9 °F 14.1 °F 1017.5 in Calm     69 % 0.0 in 0.0 W/m2 CLR
05:46 19.9 °F 14.3 °F 1017.5 in Calm     70 % 0.0 in 0.0 W/m2 CLR
05:51 19.8 °F 14.2 °F 1017.5 in Calm     70 % 0.0 in 0.0 W/m2 CLR
05:56 19.7 °F 14.1 °F 1017.5 in Calm     70 % 0.0 in 0.0 W/m2 CLR
06:01 19.7 °F 14.3 °F 1017.5 in Calm     71 % 0.0 in 0.0 W/m2 CLR
06:06 19.6 °F 14.2 °F 1017.5 in Calm     71 % 0.0 in 0.0 W/m2 CLR
06:07 19.6 °F 14.2 °F 1017.5 in Calm     71 % 0.0 in 0.0 W/m2 CLR
06:12 19.4 °F 14.3 °F 1017.5 in Calm     72 % 0.0 in 0.0 W/m2 CLR
06:17 19.3 °F 14.1 °F 1017.5 in Calm     72 % 0.0 in 0.0 W/m2 CLR
06:22 19.1 °F 13.9 °F 1017.5 in Calm     72 % 0.0 in 0.0 W/m2 CLR
06:27 19.0 °F 14.1 °F 1017.5 in Calm     73 % 0.0 in 0.0 W/m2 CLR
06:32 18.9 °F 13.9 °F 1017.8 in Calm     73 % 0.0 in 0.0 W/m2 OVC
06:37 18.8 °F 14.1 °F 1017.8 in Calm     74 % 0.0 in 5.0 W/m2 OVC
06:42 18.8 °F 14.3 °F 1017.8 in Calm     75 % 0.0 in 7.0 W/m2 BKN
06:47 18.8 °F 14.3 °F 1017.8 in Calm     75 % 0.0 in 9.0 W/m2 BKN
06:52 18.8 °F 14.3 °F 1017.8 in Calm     75 % 0.0 in 12.0 W/m2 BKN
06:57 18.7 °F 14.2 °F 1017.8 in Calm     75 % 0.0 in 16.0 W/m2 BKN
07:02 18.6 °F 14.1 °F 1017.8 in Calm     75 % 0.0 in 18.0 W/m2 BKN
07:07 18.6 °F 14.3 °F 1017.8 in Calm     76 % 0.0 in 21.0 W/m2 BKN
07:12 18.6 °F 14.2 °F 1017.8 in Calm     76 % 0.0 in 25.0 W/m2 BKN
07:17 18.6 °F 14.2 °F 1018.2 in Calm     76 % 0.0 in 32.0 W/m2 BKN
07:22 18.7 °F 14.2 °F 1018.2 in Calm     75 % 0.0 in 40.0 W/m2 BKN
07:27 18.9 °F 14.2 °F 1018.2 in Calm     74 % 0.0 in 49.0 W/m2 SCT
07:32 19.0 °F 14.3 °F 1018.2 in Calm     74 % 0.0 in 60.0 W/m2 SCT
07:37 19.1 °F 14.3 °F 1018.2 in Calm     74 % 0.0 in 72.0 W/m2 FEW
07:42 19.2 °F 14.3 °F 1018.2 in Calm     73 % 0.0 in 84.0 W/m2 FEW
07:47 19.4 °F 14.2 °F 1018.2 in Calm     72 % 0.0 in 98.0 W/m2 FEW
07:52 19.6 °F 14.4 °F 1018.2 in Calm     72 % 0.0 in 111.0 W/m2 CLR
07:57 19.8 °F 14.6 °F 1018.2 in Calm     72 % 0.0 in 128.0 W/m2 CLR
08:02 20.1 °F 14.8 °F 1018.2 in Calm     72 % 0.0 in 144.0 W/m2 CLR
08:08 20.4 °F 14.7 °F 1018.2 in Calm     70 % 0.0 in 163.0 W/m2 CLR
08:13 20.7 °F 14.8 °F 1018.2 in Calm     69 % 0.0 in 179.0 W/m2 CLR
08:18 21.1 °F 14.9 °F 1018.5 in Calm     68 % 0.0 in 195.0 W/m2 CLR
08:23 21.4 °F 14.8 °F 1018.5 in Calm     66 % 0.0 in 211.0 W/m2 CLR
08:28 21.8 °F 15.2 °F 1018.5 in Calm     66 % 0.0 in 227.0 W/m2 CLR
08:33 22.1 °F 15.4 °F 1018.2 in Calm     66 % 0.0 in 244.0 W/m2 CLR
08:38 22.3 °F 15.8 °F 1018.2 in Calm     67 % 0.0 in 258.0 W/m2 CLR
08:43 22.6 °F 16.2 °F 1018.2 in Calm     67 % 0.0 in 274.0 W/m2 CLR
08:48 22.9 °F 15.7 °F 1018.2 in Calm     64 % 0.0 in 288.0 W/m2 CLR
08:53 23.2 °F 15.6 °F 1018.2 in Calm     62 % 0.0 in 306.0 W/m2 CLR
08:58 23.6 °F 15.7 °F 1018.2 in Calm     61 % 0.0 in 320.0 W/m2 CLR
09:03 23.9 °F 15.4 °F 1018.2 in WSW 7.4 mph 7.4 mph 59 % 0.0 in 334.0 W/m2 CLR
09:08 24.1 °F 15.6 °F 1018.2 in SW 9.3 mph 9.3 mph 59 % 0.0 in 352.0 W/m2 CLR
09:13 24.4 °F 15.7 °F 1018.2 in SSW 5.6 mph 5.6 mph 58 % 0.0 in 369.0 W/m2 CLR
09:18 24.6 °F 15.5 °F 1018.2 in SW 7.4 mph 7.4 mph 57 % 0.0 in 383.0 W/m2 CLR
09:23 24.9 °F 15.5 °F 1017.8 in SW 11.3 mph 11.3 mph 56 % 0.0 in 397.0 W/m2 CLR
09:28 25.0 °F 15.9 °F 1018.2 in Calm     57 % 0.0 in 413.0 W/m2 CLR
09:33 25.2 °F 15.8 °F 1018.2 in NW 11.1 mph 11.1 mph 56 % 0.0 in 431.0 W/m2 CLR
09:38 25.3 °F 15.6 °F 1018.2 in North 9.3 mph 9.3 mph 55 % 0.0 in 446.0 W/m2 CLR
09:43 25.3 °F 15.7 °F 1018.2 in NNW 7.4 mph 7.4 mph 55 % 0.0 in 462.0 W/m2 CLR
09:48 25.4 °F 15.7 °F 1018.2 in NW 11.1 mph 11.1 mph 55 % 0.0 in 476.0 W/m2 CLR
09:53 25.5 °F 15.5 °F 1018.2 in NNW 7.4 mph 7.4 mph 54 % 0.0 in 492.0 W/m2 CLR
09:58 25.5 °F 15.8 °F 1018.2 in Calm     55 % 0.0 in 508.0 W/m2 CLR
10:03 25.6 °F 15.9 °F 1017.8 in WNW 1.9 mph   55 % 0.0 in 522.0 W/m2 CLR
10:08 25.8 °F 15.8 °F 1018.2 in NW 7.4 mph 7.4 mph 54 % 0.0 in 538.0 W/m2 CLR
10:13 25.9 °F 15.6 °F 1017.8 in NNE 3.2 mph 3.2 mph 53 % 0.0 in 552.0 W/m2 CLR
10:18 26.0 °F 15.7 °F 1017.8 in Calm     53 % 0.0 in 568.0 W/m2 CLR
10:23 26.2 °F 15.8 °F 1017.8 in Calm     53 % 0.0 in 580.0 W/m2 CLR
10:28 26.4 °F 15.8 °F 1017.8 in North 7.4 mph 7.4 mph 52 % 0.0 in 594.0 W/m2 CLR
10:33 26.5 °F 15.6 °F 1017.8 in Calm     51 % 0.0 in 606.0 W/m2 CLR
10:38 26.6 °F 15.9 °F 1017.8 in NW 3.7 mph   52 % 0.0 in 622.0 W/m2 CLR
10:43 26.8 °F 16.2 °F 1017.8 in Calm     52 % 0.0 in 633.0 W/m2 CLR
10:48 27.2 °F 16.2 °F 1017.8 in Calm     51 % 0.0 in 649.0 W/m2 CLR
10:53 27.4 °F 16.1 °F 1017.8 in Calm     50 % 0.0 in 661.0 W/m2 CLR
10:58 27.8 °F 16.1 °F 1017.5 in ENE 5.6 mph 5.6 mph 49 % 0.0 in 671.0 W/m2 CLR
11:03 27.9 °F 15.9 °F 1017.5 in ESE 3.7 mph   48 % 0.0 in 687.0 W/m2 CLR
11:08 28.0 °F 16.3 °F 1017.5 in East 5.6 mph 5.6 mph 49 % 0.0 in 701.0 W/m2 CLR
11:13 28.1 °F 16.0 °F 1017.5 in ENE 3.7 mph 3.7 mph 48 % 0.0 in 712.0 W/m2 CLR
11:18 28.1 °F 16.1 °F 1017.5 in ENE 8.0 mph 8.0 mph 48 % 0.0 in 724.0 W/m2 CLR
11:23 28.1 °F 16.0 °F 1017.5 in ENE 9.3 mph 9.3 mph 48 % 0.0 in 737.0 W/m2 CLR
11:28 28.3 °F 16.2 °F 1017.5 in ENE 9.3 mph 9.3 mph 48 % 0.0 in 749.0 W/m2 CLR
11:33 28.4 °F 16.1 °F 1017.5 in Calm     47 % 0.0 in 759.0 W/m2 CLR
11:38 28.6 °F 15.8 °F 1017.2 in Calm     46 % 0.0 in 770.0 W/m2 CLR
11:43 28.6 °F 15.8 °F 1017.2 in SSE 7.4 mph 7.4 mph 46 % 0.0 in 782.0 W/m2 CLR
11:48 28.6 °F 15.8 °F 1017.2 in ENE 1.9 mph   46 % 0.0 in 793.0 W/m2 CLR
11:49 28.6 °F 15.8 °F 1017.2 in Calm     46 % 0.0 in 795.0 W/m2 CLR
11:54 29.1 °F 15.6 °F 1017.2 in ENE 5.6 mph   44 % 0.0 in 803.0 W/m2 CLR
11:59 29.3 °F 16.1 °F 1017.2 in Calm     45 % 0.0 in 814.0 W/m2 CLR
12:04 29.7 °F 15.8 °F 1016.8 in West 5.6 mph 5.6 mph 43 % 0.0 in 821.0 W/m2 CLR
12:09 29.7 °F 16.1 °F 1016.8 in North 7.4 mph 7.4 mph 44 % 0.0 in 830.0 W/m2 CLR
12:14 29.8 °F 16.2 °F 1016.8 in NW 7.4 mph 7.4 mph 44 % 0.0 in 835.0 W/m2 CLR
12:19 30.0 °F 15.7 °F 1016.8 in Calm     42 % 0.0 in 847.0 W/m2 CLR
12:24 30.3 °F 16.3 °F 1016.8 in ENE 1.9 mph 1.9 mph 43 % 0.0 in 853.0 W/m2 CLR
12:29 30.6 °F 16.2 °F 1016.8 in ENE 9.7 mph 9.7 mph 42 % 0.0 in 861.0 W/m2 CLR
12:35 30.3 °F 15.9 °F 1016.8 in Calm   0.2 mph 42 % 0.0 in 865.0 W/m2 CLR
12:40 30.3 °F 16.0 °F 1016.8 in ENE 1.9 mph 1.9 mph 42 % 0.0 in 872.0 W/m2 CLR
12:45 30.6 °F 16.6 °F 1016.8 in ENE 11.1 mph 11.1 mph 43 % 0.0 in 874.0 W/m2 CLR
12:50 30.7 °F 16.3 °F 1016.5 in ENE 9.3 mph 9.3 mph 42 % 0.0 in 881.0 W/m2 CLR
12:55 30.8 °F 16.4 °F 1016.8 in ENE 7.4 mph   42 % 0.0 in 884.0 W/m2 CLR
13:00 30.9 °F 16.2 °F 1016.8 in ENE 3.7 mph   41 % 0.0 in 889.0 W/m2 CLR
13:05 31.0 °F 16.2 °F 1016.8 in Calm     41 % 0.0 in 893.0 W/m2 CLR
13:10 31.2 °F 16.3 °F 1016.5 in Calm     41 % 0.0 in 900.0 W/m2 CLR
13:15 31.6 °F 16.4 °F 1016.5 in Calm     40 % 0.0 in 900.0 W/m2 CLR
13:20 31.8 °F 16.9 °F 1016.5 in NNE 13.0 mph 13.0 mph 41 % 0.0 in 909.0 W/m2 CLR
13:25 32.0 °F 16.3 °F 1016.5 in ENE 5.6 mph   39 % 0.0 in 909.0 W/m2 CLR
13:30 32.2 °F 16.4 °F 1016.1 in NE 11.1 mph 11.1 mph 39 % 0.0 in 912.0 W/m2 CLR
13:35 32.1 °F 16.4 °F 1016.1 in ENE 5.6 mph 5.6 mph 39 % 0.0 in 912.0 W/m2 CLR
13:40 31.9 °F 16.3 °F 1016.1 in ENE 8.0 mph 8.0 mph 39 % 0.0 in 912.0 W/m2 CLR
13:45 32.2 °F 16.1 °F 1016.1 in NNE 5.6 mph 5.6 mph 38 % 0.0 in 919.0 W/m2 CLR
13:50 32.5 °F 16.3 °F 1015.8 in ENE 3.2 mph 3.2 mph 38 % 0.0 in 919.0 W/m2 CLR
13:55 32.6 °F 16.0 °F 1015.8 in NNE 7.4 mph 7.4 mph 37 % 0.0 in 921.0 W/m2 CLR
14:00 32.6 °F 16.4 °F 1016.1 in NE 13.0 mph 13.0 mph 38 % 0.0 in 919.0 W/m2 CLR
14:05 32.7 °F 16.6 °F 1015.8 in NNE 9.3 mph 9.3 mph 38 % 0.0 in 919.0 W/m2 CLR
14:10 32.8 °F 16.6 °F 1015.8 in North 6.4 mph 6.4 mph 38 % 0.0 in 914.0 W/m2 CLR
14:15 32.9 °F 15.9 °F 1015.5 in ENE 5.6 mph 5.6 mph 36 % 0.0 in 918.0 W/m2 CLR
14:20 33.2 °F 16.5 °F 1015.5 in North 9.7 mph 9.7 mph 37 % 0.0 in 918.0 W/m2 CLR
14:25 33.3 °F 16.6 °F 1015.5 in NE 13.0 mph 13.0 mph 37 % 0.0 in 916.0 W/m2 CLR
14:30 33.4 °F 16.3 °F 1015.5 in ENE 11.1 mph 11.1 mph 36 % 0.0 in 918.0 W/m2 CLR
14:35 33.4 °F 16.3 °F 1015.5 in North 9.7 mph 9.7 mph 36 % 0.0 in 911.0 W/m2 CLR
14:40 33.7 °F 16.1 °F 1015.5 in North 9.3 mph 9.3 mph 35 % 0.0 in 909.0 W/m2 CLR
14:45 33.8 °F 16.7 °F 1015.1 in NNE 7.4 mph 7.4 mph 36 % 0.0 in 904.0 W/m2 CLR
14:50 34.1 °F 15.9 °F 1015.1 in WNW 9.3 mph 9.3 mph 34 % 0.0 in 898.0 W/m2 CLR
14:55 33.9 °F 15.9 °F 1015.1 in North 7.4 mph 7.4 mph 34 % 0.0 in 895.0 W/m2 CLR
15:00 34.1 °F 16.5 °F 1015.1 in Calm     35 % 0.0 in 889.0 W/m2 CLR
15:05 34.5 °F 16.3 °F 1014.8 in ENE 7.4 mph 7.4 mph 34 % 0.0 in 886.0 W/m2 CLR
15:10 34.6 °F 15.9 °F 1014.8 in ENE 7.4 mph 7.4 mph 33 % 0.0 in 879.0 W/m2 CLR
15:11 34.6 °F 16.4 °F 1014.8 in ENE 1.9 mph   34 % 0.0 in 881.0 W/m2 CLR
15:16 34.9 °F 16.7 °F 1014.8 in Calm   0.2 mph 34 % 0.0 in 882.0 W/m2 CLR
15:21 34.9 °F 15.7 °F 1014.8 in NNW 7.4 mph 7.4 mph 32 % 0.0 in 872.0 W/m2 CLR
15:26 34.8 °F 15.7 °F 1014.8 in NNW 5.6 mph 5.6 mph 32 % 0.0 in 867.0 W/m2 CLR
15:31 34.7 °F 15.6 °F 1014.4 in NNW 5.6 mph 5.6 mph 32 % 0.0 in 858.0 W/m2 CLR
15:36 34.8 °F 15.7 °F 1014.4 in North 1.9 mph   32 % 0.0 in 849.0 W/m2 CLR
15:41 34.9 °F 15.7 °F 1014.4 in Calm     32 % 0.0 in 846.0 W/m2 CLR
15:46 35.1 °F 15.9 °F 1014.4 in North 1.9 mph 1.9 mph 32 % 0.0 in 840.0 W/m2 CLR
15:51 35.3 °F 15.6 °F 1014.4 in North 9.3 mph 9.3 mph 31 % 0.0 in 831.0 W/m2 CLR
15:56 35.3 °F 15.1 °F 1014.1 in Calm     30 % 0.0 in 821.0 W/m2 CLR
16:01 35.4 °F 14.7 °F 1014.1 in North 9.3 mph 9.3 mph 29 % 0.0 in 817.0 W/m2 CLR
16:06 35.5 °F 14.7 °F 1014.1 in NNW 6.4 mph 6.4 mph 29 % 0.0 in 810.0 W/m2 CLR
16:11 35.7 °F 14.3 °F 1014.1 in North 7.4 mph   28 % 0.0 in 802.0 W/m2 CLR
16:16 35.7 °F 14.9 °F 1014.1 in Calm     29 % 0.0 in 793.0 W/m2 CLR
16:21 35.9 °F 15.1 °F 1013.8 in NNW 9.3 mph 9.3 mph 29 % 0.0 in 782.0 W/m2 CLR
16:26 36.0 °F 14.6 °F 1013.8 in North 7.4 mph 7.4 mph 28 % 0.0 in 775.0 W/m2 CLR
16:31 36.0 °F 14.6 °F 1013.8 in North 7.4 mph 7.4 mph 28 % 0.0 in 765.0 W/m2 CLR
16:36 36.1 °F 14.7 °F 1013.8 in NNW 9.7 mph 9.7 mph 28 % 0.0 in 756.0 W/m2 CLR
16:41 36.3 °F 14.3 °F 1013.8 in NW 9.3 mph 9.3 mph 27 % 0.0 in 744.0 W/m2 CLR
16:46 36.4 °F 14.4 °F 1013.8 in North 16.7 mph 16.7 mph 27 % 0.0 in 731.0 W/m2 CLR
16:51 36.4 °F 14.4 °F 1013.8 in NW 11.1 mph 11.1 mph 27 % 0.0 in 721.0 W/m2 CLR
16:56 36.5 °F 14.5 °F 1013.8 in WNW 1.9 mph   27 % 0.0 in 707.0 W/m2 CLR
17:01 36.7 °F 15.2 °F 1013.8 in NNE 9.7 mph 9.7 mph 28 % 0.0 in 696.0 W/m2 CLR
17:06 36.7 °F 15.2 °F 1013.8 in North 8.0 mph 8.0 mph 28 % 0.0 in 680.0 W/m2 CLR
17:11 36.6 °F 15.2 °F 1013.8 in East 5.6 mph 5.6 mph 28 % 0.0 in 668.0 W/m2 CLR
17:16 36.6 °F 15.2 °F 1013.4 in NNE 13.0 mph 13.0 mph 28 % 0.0 in 656.0 W/m2 CLR
17:21 36.5 °F 15.6 °F 1013.4 in ENE 8.0 mph 8.0 mph 29 % 0.0 in 645.0 W/m2 CLR
17:26 36.6 °F 15.2 °F 1013.4 in East 9.7 mph 9.7 mph 28 % 0.0 in 631.0 W/m2 CLR
17:31 36.3 °F 14.9 °F 1013.4 in North 1.9 mph   28 % 0.0 in 617.0 W/m2 CLR
17:36 36.4 °F 15.0 °F 1013.4 in Calm     28 % 0.0 in 606.0 W/m2 CLR
17:41 36.7 °F 15.2 °F 1013.1 in ENE 3.7 mph 3.7 mph 28 % 0.0 in 591.0 W/m2 CLR
17:46 36.6 °F 14.6 °F 1013.4 in East 5.6 mph 5.6 mph 27 % 0.0 in 577.0 W/m2 CLR
17:51 36.3 °F 14.3 °F 1013.1 in ENE 7.4 mph 7.4 mph 27 % 0.0 in 555.0 W/m2 CLR
17:54 36.2 °F 14.8 °F 1013.1 in East 8.0 mph 8.0 mph 28 % 0.0 in 548.0 W/m2 CLR
17:59 36.1 °F 14.7 °F 1013.1 in ENE 13.0 mph 13.0 mph 28 % 0.0 in 536.0 W/m2 CLR
18:04 36.0 °F 14.1 °F 1013.1 in East 7.4 mph 7.4 mph 27 % 0.0 in 519.0 W/m2 CLR
18:09 36.1 °F 15.3 °F 1013.1 in ENE 5.6 mph 5.6 mph 29 % 0.0 in 501.0 W/m2 CLR
18:14 36.4 °F 14.9 °F 1013.1 in ENE 9.3 mph 9.3 mph 28 % 0.0 in 487.0 W/m2 CLR
18:19 36.4 °F 15.0 °F 1013.1 in Calm     28 % 0.0 in 469.0 W/m2 CLR
18:24 36.6 °F 14.6 °F 1013.1 in ENE 6.4 mph 6.4 mph 27 % 0.0 in 457.0 W/m2 CLR
18:29 36.6 °F 14.6 °F 1013.1 in ENE 5.6 mph 5.6 mph 27 % 0.0 in 446.0 W/m2 CLR
18:34 36.6 °F 15.2 °F 1013.1 in Calm     28 % 0.0 in 429.0 W/m2 CLR
18:39 36.9 °F 15.4 °F 1012.8 in Calm     28 % 0.0 in 410.0 W/m2 CLR
18:44 37.1 °F 14.9 °F 1012.8 in Calm     27 % 0.0 in 396.0 W/m2 CLR
18:49 37.2 °F 15.1 °F 1012.8 in Calm     27 % 0.0 in 376.0 W/m2 CLR
18:54 37.4 °F 15.2 °F 1012.8 in NNW 1.9 mph   27 % 0.0 in 364.0 W/m2 CLR
18:59 37.4 °F 15.2 °F 1012.8 in NE 1.9 mph   27 % 0.0 in 348.0 W/m2 CLR
19:04 37.5 °F 14.7 °F 1012.8 in NW 7.4 mph 7.4 mph 26 % 0.0 in 327.0 W/m2 CLR
19:09 37.4 °F 14.7 °F 1012.8 in WNW 14.8 mph 14.8 mph 26 % 0.0 in 313.0 W/m2 CLR
19:14 37.0 °F 14.3 °F 1012.8 in NW 9.3 mph 9.3 mph 26 % 0.0 in 295.0 W/m2 CLR
19:19 36.8 °F 14.2 °F 1012.8 in Calm     26 % 0.0 in 283.0 W/m2 CLR
19:24 36.8 °F 14.2 °F 1012.8 in Calm     26 % 0.0 in 265.0 W/m2 CLR
19:29 36.8 °F 14.2 °F 1012.8 in North 13.0 mph 13.0 mph 26 % 0.0 in 251.0 W/m2 CLR
19:34 36.7 °F 14.6 °F 1012.8 in North 11.1 mph 11.1 mph 27 % 0.0 in 237.0 W/m2 CLR
19:39 36.7 °F 14.6 °F 1012.8 in WNW 5.6 mph 5.6 mph 27 % 0.0 in 221.0 W/m2 CLR
19:44 36.6 °F 14.6 °F 1012.8 in WNW 5.6 mph 5.6 mph 27 % 0.0 in 202.0 W/m2 CLR
19:49 36.4 °F 14.4 °F 1012.8 in NNW 13.0 mph 13.0 mph 27 % 0.0 in 185.0 W/m2 CLR
19:54 36.3 °F 14.3 °F 1012.8 in North 7.4 mph 7.4 mph 27 % 0.0 in 171.0 W/m2 CLR
19:59 36.2 °F 14.2 °F 1012.8 in NNW 5.6 mph   27 % 0.0 in 158.0 W/m2 CLR
20:04 36.2 °F 14.8 °F 1012.8 in NNW 5.6 mph 5.6 mph 28 % 0.0 in 149.0 W/m2 CLR
20:09 36.0 °F 14.6 °F 1013.1 in NNW 9.3 mph 9.3 mph 28 % 0.0 in 130.0 W/m2 CLR
20:14 35.9 °F 14.6 °F 1013.1 in Calm     28 % 0.0 in 120.0 W/m2 CLR
20:19 35.8 °F 15.0 °F 1013.1 in NW 14.8 mph 14.8 mph 29 % 0.0 in 105.0 W/m2 CLR
20:24 35.6 °F 14.8 °F 1013.1 in Calm     29 % 0.0 in 93.0 W/m2 CLR
20:29 35.4 °F 14.7 °F 1013.1 in Calm     29 % 0.0 in 81.0 W/m2 CLR
20:34 35.3 °F 15.1 °F 1013.1 in NNW 7.4 mph 7.4 mph 30 % 0.0 in 69.0 W/m2 FEW
20:39 35.2 °F 15.1 °F 1013.1 in Calm     30 % 0.0 in 60.0 W/m2 SCT
20:44 35.1 °F 14.9 °F 1013.1 in Calm     30 % 0.0 in 53.0 W/m2 SCT
20:49 35.0 °F 15.3 °F 1013.1 in Calm     31 % 0.0 in 44.0 W/m2 BKN
20:54 34.8 °F 15.2 °F 1013.1 in Calm     31 % 0.0 in 37.0 W/m2 BKN
20:59 34.6 °F 15.0 °F 1013.1 in Calm     31 % 0.0 in 32.0 W/m2 BKN
21:04 34.4 °F 15.3 °F 1013.4 in Calm     32 % 0.0 in 26.0 W/m2 BKN
21:09 34.1 °F 15.6 °F 1013.4 in Calm     33 % 0.0 in 21.0 W/m2 BKN
21:14 33.9 °F 16.7 °F 1013.4 in Calm     36 % 0.0 in 16.0 W/m2 BKN
21:19 33.6 °F 16.1 °F 1013.4 in NNW 7.4 mph 7.4 mph 35 % 0.0 in 11.0 W/m2 BKN
21:24 33.4 °F 16.3 °F 1013.8 in North 5.6 mph   36 % 0.0 in 7.0 W/m2 BKN
21:29 33.3 °F 16.6 °F 1013.4 in Calm     37 % 0.0 in 0.0 W/m2 OVC
21:34 33.1 °F 16.4 °F 1013.8 in Calm     37 % 0.0 in 0.0 W/m2 OVC
21:39 32.9 °F 16.7 °F 1013.8 in Calm     38 % 0.0 in 0.0 W/m2 OVC
21:44 32.7 °F 17.7 °F 1013.8 in Calm     41 % 0.0 in 0.0 W/m2 CLR
21:49 32.5 °F 16.8 °F 1014.1 in NNW 7.4 mph 7.4 mph 39 % 0.0 in 0.0 W/m2 CLR
21:54 32.3 °F 16.2 °F 1014.1 in WNW 11.1 mph 11.1 mph 38 % 0.0 in 0.0 W/m2 CLR
21:59 32.2 °F 16.1 °F 1014.1 in NNW 14.8 mph 14.8 mph 38 % 0.0 in 0.0 W/m2 CLR
22:04 32.1 °F 16.0 °F 1014.1 in NW 18.5 mph 18.5 mph 38 % 0.0 in 0.0 W/m2 CLR
22:10 32.1 °F 15.9 °F 1014.4 in NW 11.3 mph 11.3 mph 38 % 0.0 in 0.0 W/m2 CLR
22:15 31.9 °F 15.8 °F 1014.4 in NW 16.7 mph 16.7 mph 38 % 0.0 in 0.0 W/m2 CLR
22:20 31.8 °F 15.7 °F 1014.4 in NNW 13.0 mph 13.0 mph 38 % 0.0 in 0.0 W/m2 CLR
22:25 31.6 °F 15.9 °F 1014.8 in NW 12.9 mph 12.9 mph 39 % 0.0 in 0.0 W/m2 CLR
22:30 31.4 °F 15.4 °F 1014.8 in NW 16.7 mph 16.7 mph 38 % 0.0 in 0.0 W/m2 CLR
22:35 31.3 °F 15.3 °F 1014.8 in NNW 13.0 mph 13.0 mph 38 % 0.0 in 0.0 W/m2 CLR
22:40 31.2 °F 15.6 °F 1014.8 in NNW 18.5 mph 18.5 mph 39 % 0.0 in 0.0 W/m2 CLR
22:45 31.1 °F 15.1 °F 1015.1 in NW 14.8 mph 14.8 mph 38 % 0.0 in 0.0 W/m2 CLR
22:50 30.9 °F 14.9 °F 1015.1 in NW 18.5 mph 18.5 mph 38 % 0.0 in 0.0 W/m2 CLR
22:55 30.8 °F 14.9 °F 1015.1 in WNW 18.5 mph 18.5 mph 38 % 0.0 in 0.0 W/m2 CLR
23:00 30.7 °F 14.8 °F 1015.1 in NNW 17.7 mph 17.7 mph 38 % 0.0 in 0.0 W/m2 CLR
23:05 30.6 °F 14.6 °F 1015.1 in NW 18.5 mph 18.5 mph 38 % 0.0 in 0.0 W/m2 CLR
23:10 30.4 °F 14.9 °F 1015.5 in WNW 24.1 mph 24.1 mph 39 % 0.0 in 0.0 W/m2 CLR
23:15 30.3 °F 14.8 °F 1015.5 in NW 22.2 mph 22.2 mph 39 % 0.0 in 0.0 W/m2 CLR
23:20 30.1 °F 14.6 °F 1015.5 in NNW 24.1 mph 24.1 mph 39 % 0.0 in 0.0 W/m2 CLR
23:25 30.0 °F 14.6 °F 1015.5 in NW 27.8 mph 27.8 mph 39 % 0.0 in 0.0 W/m2 CLR
23:30 29.9 °F 14.4 °F 1015.5 in WNW 25.9 mph 25.9 mph 39 % 0.0 in 0.0 W/m2 CLR
23:35 29.8 °F 14.3 °F 1015.5 in WNW 29.6 mph 29.6 mph 39 % 0.0 in 0.0 W/m2 CLR
23:40 29.7 °F 14.3 °F 1015.8 in NW 18.5 mph 18.5 mph 39 % 0.0 in 0.0 W/m2 CLR
23:45 29.6 °F 14.1 °F 1015.8 in NW 22.2 mph 22.2 mph 39 % 0.0 in 0.0 W/m2 CLR
23:50 29.4 °F 14.0 °F 1015.8 in WNW 20.4 mph 20.4 mph 39 % 0.0 in 0.0 W/m2 CLR
23:55 29.3 °F 14.3 °F 1015.8 in WNW 16.1 mph 16.1 mph 40 % 0.0 in 0.0 W/m2 CLR
Lo Temps de Massalio
Compliments of Weather Underground - 1.25 mb